East Farms, Washington
Current Conditions -  °F | °C
As of 1:53 AM on Thursday 23 Oct 2014 (Local Time) from KSFF Reporting Station
Overcast Overcast  
Wind Chill: 15°   Ceiling: 5500
Heat Index: 15°   Visibility: 10mi
Dew Point:   Wind: 13mph
Humidity: 55%   Direction: 210°SSW
Pressure: 29.77"   Gusts: NA
Location:  47.7153°N, 117.066°W
Report Text: KSFF 230853Z 21011KT 10SM BKN055 OVC070 15/06 A2977 RMK AO2 RAB26E46 SLP073 P0000 60000 T01500061 53002
Loading
Personal Weather Stations






























Interactive Weather Map
Tropical Storm Tracking
New forecast layout! Learn more

10-Day Weather Forecast

Advertisements
Track Severe Weather on mobile